Time;durP1;ratioP1;P1;durP2;ratioP2;P2;SDS_P1;SDS_P2;PMS_P1;PMS_P2;Temp;Humidity;BMP_temperature;BMP_pressure;BME280_temperature;BME280_humidity;BME280_pressure;Samples;Min_cycle;Max_cycle;Signal;HPM_P1;HPM_P2
2022/02/04 00:22:38;;;;;;;7.40;5.68;;;6.80;99.90;;;;;;5110627;28;20092;-70
2022/02/04 00:24:43;;;;;;;8.43;6.70;;;6.90;99.90;;;;;;5109409;28;20470;-69
2022/02/04 00:27:14;;;;;;;11.43;7.30;;;6.80;99.90;;;;;;5088268;28;20066;-69
2022/02/04 00:29:57;;;;;;;11.43;6.32;;;6.80;99.90;;;;;;5097115;28;20020;-69
2022/02/04 00:32:25;;;;;;;8.35;5.78;;;6.80;99.90;;;;;;5110022;28;20088;-68
2022/02/04 00:34:58;;;;;;;8.27;5.78;;;6.70;99.90;;;;;;5109449;28;20422;-69
2022/02/04 00:39:57;;;;;;;8.05;5.22;;;6.70;99.90;;;;;;5106641;28;20035;-70
2022/02/04 00:42:23;;;;;;;6.70;4.88;;;6.70;99.90;;;;;;5106798;28;20046;-68
2022/02/04 00:44:55;;;;;;;7.13;5.07;;;6.60;99.90;;;;;;5108761;28;20032;-70
2022/02/04 00:47:24;;;;;;;6.93;4.88;;;6.60;99.90;;;;;;5086544;28;20042;-68
2022/02/04 00:50:08;;;;;;;7.55;5.18;;;6.60;99.90;;;;;;5091788;28;20039;-70
2022/02/04 00:52:45;;;;;;;5.60;4.47;;;6.60;99.90;;;;;;5109217;28;20088;-70
2022/02/04 00:55:26;;;;;;;8.52;5.38;;;6.50;99.90;;;;;;5081855;28;20119;-70
2022/02/04 01:27:58;;;;;;;7.20;5.15;;;6.40;99.90;;;;;;5108761;28;20030;-70
2022/02/04 01:30:32;;;;;;;5.90;4.85;;;6.40;99.90;;;;;;5106981;28;20028;-69
2022/02/04 01:32:58;;;;;;;8.63;5.88;;;6.40;99.90;;;;;;5110007;28;20532;-69
2022/02/04 01:35:24;;;;;;;8.95;5.13;;;6.30;99.90;;;;;;5083194;28;20035;-70
2022/02/04 01:37:49;;;;;;;10.13;5.93;;;6.30;99.90;;;;;;5080989;28;20344;-70
2022/02/04 01:40:15;;;;;;;7.85;5.88;;;6.30;99.90;;;;;;5091968;28;22187;-70
2022/02/04 01:42:40;;;;;;;7.57;5.85;;;6.30;99.90;;;;;;5078954;28;20027;-68
2022/02/04 01:45:06;;;;;;;7.15;5.70;;;6.20;99.90;;;;;;5100606;28;20487;-67
2022/02/04 01:47:32;;;;;;;10.85;6.35;;;6.20;99.90;;;;;;5093408;28;20028;-67
2022/02/04 01:49:58;;;;;;;11.65;5.80;;;6.20;99.90;;;;;;5106385;28;20664;-67
2022/02/04 01:52:24;;;;;;;10.77;6.70;;;6.10;99.90;;;;;;5108287;28;20027;-67
2022/02/04 01:54:50;;;;;;;11.68;7.00;;;6.10;99.90;;;;;;5109236;28;20049;-67
2022/02/04 01:57:15;;;;;;;9.45;6.90;;;6.10;99.90;;;;;;5107166;28;20427;-67
2022/02/04 01:59:41;;;;;;;13.75;6.45;;;6.10;99.90;;;;;;5091147;28;20027;-67
2022/02/04 02:02:07;;;;;;;11.23;6.47;;;6.10;99.90;;;;;;5108770;28;20031;-67
2022/02/04 02:04:33;;;;;;;11.30;6.88;;;6.00;99.90;;;;;;5109135;28;20069;-67
2022/02/04 02:07:02;;;;;;;13.82;7.63;;;6.00;99.90;;;;;;5087340;28;20105;-66
2022/02/04 02:09:55;;;;;;;13.55;7.75;;;6.00;99.90;;;;;;5106074;28;20383;-66
2022/02/04 02:12:18;;;;;;;13.15;7.95;;;5.90;99.90;;;;;;5106272;28;20054;-67
2022/02/04 02:14:45;;;;;;;14.00;8.07;;;5.90;99.90;;;;;;5076192;28;20111;-67
2022/02/04 02:34:07;;;;;;;17.40;8.15;;;5.70;99.90;;;;;;5112286;28;20104;-67
2022/02/04 02:40:00;;;;;;;14.38;8.32;;;5.70;99.90;;;;;;5110757;28;20024;-67
2022/02/04 02:45:34;;;;;;;14.52;8.27;;;5.70;99.90;;;;;;5035133;28;20029;-67
2022/02/04 02:48:20;;;;;;;15.77;8.73;;;5.80;99.90;;;;;;5029016;28;20029;-66
2022/02/04 02:54:00;;;;;;;16.15;8.90;;;5.70;99.90;;;;;;5101758;28;20470;-67
2022/02/04 02:59:00;;;;;;;16.95;9.07;;;5.70;99.90;;;;;;5110440;28;20071;-66
2022/02/04 03:01:27;;;;;;;18.25;9.52;;;5.70;99.90;;;;;;5093515;28;20035;-67
2022/02/04 03:03:56;;;;;;;14.52;8.80;;;5.70;99.90;;;;;;5096978;28;20131;-67
2022/02/04 03:06:22;;;;;;;15.38;9.27;;;5.70;99.90;;;;;;5109901;28;20039;-67
2022/02/04 03:08:48;;;;;;;17.55;8.55;;;5.70;99.90;;;;;;5109999;28;20031;-67
2022/02/04 03:11:14;;;;;;;17.40;9.45;;;5.70;99.90;;;;;;5112618;28;20096;-67
2022/02/04 03:13:42;;;;;;;17.67;9.57;;;5.70;99.90;;;;;;5105460;28;20031;-67
2022/02/04 03:16:11;;;;;;;20.80;10.00;;;5.70;99.90;;;;;;5106976;28;20491;-67
2022/02/04 03:18:40;;;;;;;20.00;10.15;;;5.70;99.90;;;;;;5107152;28;20102;-67
2022/02/04 03:21:12;;;;;;;19.75;9.90;;;5.70;99.90;;;;;;5090878;28;20110;-67
2022/02/04 03:23:40;;;;;;;;;;;5.70;99.90;;;;;;5092168;28;20024;-67
2022/02/04 03:26:18;;;;;;;18.48;9.57;;;5.70;99.90;;;;;;5094033;28;19915;-67
2022/02/04 03:28:44;;;;;;;15.82;8.90;;;5.70;99.90;;;;;;5107451;28;20019;-67
2022/02/04 03:31:10;;;;;;;13.93;8.00;;;5.70;99.90;;;;;;5094223;28;20019;-67
2022/02/04 03:33:36;;;;;;;14.32;8.65;;;5.70;99.90;;;;;;5111039;28;20031;-67
2022/02/04 03:36:02;;;;;;;13.18;7.82;;;5.70;99.90;;;;;;5112435;28;20034;-67
2022/02/04 03:38:28;;;;;;;16.15;8.68;;;5.60;99.90;;;;;;5091884;28;20031;-67
2022/02/04 03:40:53;;;;;;;13.25;7.70;;;5.60;99.90;;;;;;5092424;28;20023;-67
2022/02/04 03:43:19;;;;;;;13.45;7.32;;;5.60;99.90;;;;;;5106181;28;20435;-67
2022/02/04 03:45:45;;;;;;;11.98;8.13;;;5.60;99.90;;;;;;5100644;28;20035;-67
2022/02/04 03:48:10;;;;;;;13.18;7.97;;;5.60;99.90;;;;;;5103162;28;20027;-66
2022/02/04 03:50:36;;;;;;;12.00;7.60;;;5.60;99.90;;;;;;5092413;28;20115;-67
2022/02/04 03:53:03;;;;;;;13.55;7.03;;;5.60;99.90;;;;;;5111036;28;20035;-67
2022/02/04 03:55:29;;;;;;;12.32;7.60;;;5.60;99.90;;;;;;5103306;28;20024;-69
2022/02/04 03:57:54;;;;;;;10.52;7.60;;;5.60;99.90;;;;;;5105466;28;20459;-67
2022/02/04 04:00:20;;;;;;;11.35;6.85;;;5.60;99.90;;;;;;5111146;28;20042;-67
2022/02/04 04:02:48;;;;;;;14.52;7.05;;;5.50;99.90;;;;;;5106695;28;20032;-67
2022/02/04 04:05:14;;;;;;;8.55;6.43;;;5.50;99.90;;;;;;5107434;28;20384;-67
2022/02/04 04:07:45;;;;;;;10.00;6.35;;;5.60;99.90;;;;;;5099168;28;20035;-67
2022/02/04 04:10:16;;;;;;;8.32;5.93;;;5.60;99.90;;;;;;5108168;28;20024;-67
2022/02/04 04:12:42;;;;;;;8.93;5.87;;;5.60;99.90;;;;;;5101489;28;20036;-67
2022/02/04 04:15:09;;;;;;;9.25;5.63;;;5.60;99.90;;;;;;5108519;28;20105;-67
2022/02/04 04:17:43;;;;;;;9.40;5.63;;;5.50;99.90;;;;;;5106561;28;20028;-67
2022/02/04 04:20:14;;;;;;;9.18;5.82;;;5.50;99.90;;;;;;5110758;28;20028;-67
2022/02/04 04:22:40;;;;;;;10.50;6.47;;;5.50;99.90;;;;;;5109365;28;20102;-67
2022/02/04 04:25:07;;;;;;;10.15;6.18;;;5.50;99.90;;;;;;5094974;28;20266;-67
2022/02/04 04:27:33;;;;;;;7.43;5.18;;;5.60;99.90;;;;;;5109454;28;20059;-67
2022/02/04 04:29:58;;;;;;;11.80;7.25;;;5.50;99.90;;;;;;5086534;28;20544;-67
2022/02/04 04:32:24;;;;;;;9.48;6.18;;;5.60;99.90;;;;;;5110630;28;20058;-67
2022/02/04 04:34:50;;;;;;;10.10;6.45;;;5.60;99.90;;;;;;5079389;28;20119;-73
2022/02/04 04:37:16;;;;;;;9.30;5.55;;;5.60;99.90;;;;;;5106815;28;20036;-67
2022/02/04 04:39:58;;;;;;;8.45;5.43;;;5.60;99.90;;;;;;5091591;28;20306;-67
2022/02/04 05:27:10;;;;;;;4.93;4.22;;;5.50;99.90;;;;;;5109932;28;20035;-68
2022/02/04 05:29:15;;;;;;;4.95;3.90;;;5.50;99.90;;;;;;5089811;28;20053;-70
2022/02/04 05:31:46;;;;;;;6.13;4.22;;;5.50;99.90;;;;;;5100284;28;20015;-68
2022/02/04 05:34:17;;;;;;;5.65;4.32;;;5.50;99.90;;;;;;5083577;28;20027;-67
2022/02/04 05:36:46;;;;;;;5.78;4.00;;;5.50;99.90;;;;;;5110456;28;20055;-68
2022/02/04 05:39:13;;;;;;;5.45;4.60;;;5.50;99.90;;;;;;5109042;28;20020;-68
2022/02/04 05:41:43;;;;;;;6.00;3.30;;;5.50;99.90;;;;;;5110248;28;20020;-67
2022/02/04 05:44:12;;;;;;;3.78;3.40;;;5.50;99.90;;;;;;5110848;28;20064;-69
2022/02/04 05:46:49;;;;;;;4.10;3.70;;;5.50;99.90;;;;;;5110414;28;20043;-69
2022/02/04 05:49:17;;;;;;;4.00;3.25;;;5.50;99.90;;;;;;5105482;28;20032;-68
2022/02/04 05:51:59;;;;;;;3.90;3.40;;;5.50;99.90;;;;;;5101188;28;20020;-68
2022/02/04 05:57:16;;;;;;;2.85;2.65;;;5.50;99.90;;;;;;5061829;28;20044;-68
2022/02/04 06:04:58;;;;;;;1.80;1.70;;;5.40;99.90;;;;;;5104602;28;20043;-68
2022/02/04 06:07:31;;;;;;;2.13;1.85;;;5.40;99.90;;;;;;5097038;28;20024;-69
2022/02/04 06:10:29;;;;;;;2.88;2.08;;;5.30;99.90;;;;;;5109710;28;20092;-68
2022/02/04 06:13:31;;;;;;;2.15;1.95;;;5.30;99.90;;;;;;5108552;28;20032;-70
2022/02/04 06:24:04;;;;;;;3.97;2.55;;;5.30;99.90;;;;;;5100278;28;20136;-67
2022/02/04 06:26:31;;;;;;;2.97;2.63;;;5.30;99.90;;;;;;5104343;28;20031;-68
2022/02/04 06:28:56;;;;;;;2.83;2.63;;;5.30;99.90;;;;;;5110050;28;20020;-68
2022/02/04 06:31:23;;;;;;;4.07;2.75;;;5.30;99.90;;;;;;5105752;28;20032;-68
2022/02/04 06:33:49;;;;;;;2.92;2.70;;;5.30;99.90;;;;;;5106676;28;20038;-69
2022/02/04 06:36:15;;;;;;;4.22;3.50;;;5.30;99.90;;;;;;5108815;28;20023;-69
2022/02/04 06:38:41;;;;;;;3.63;2.80;;;5.30;99.90;;;;;;5099415;28;20020;-69
2022/02/04 06:41:06;;;;;;;4.30;3.28;;;5.40;99.90;;;;;;5110416;28;20532;-69
2022/02/04 06:43:33;;;;;;;4.00;3.35;;;5.40;99.90;;;;;;5109960;28;20020;-68
2022/02/04 06:45:58;;;;;;;4.10;3.70;;;5.40;99.90;;;;;;5110830;28;20020;-68
2022/02/04 06:48:24;;;;;;;5.25;4.07;;;5.40;99.90;;;;;;5109030;28;20085;-68
2022/02/04 06:50:50;;;;;;;6.35;4.78;;;5.40;99.90;;;;;;5110119;28;20019;-68
2022/02/04 06:53:16;;;;;;;6.78;4.93;;;5.40;99.90;;;;;;5110230;28;20107;-68
2022/02/04 06:55:42;;;;;;;5.13;4.30;;;5.40;99.90;;;;;;5110547;28;20098;-68
2022/02/04 06:58:10;;;;;;;6.13;4.70;;;5.40;99.90;;;;;;5091307;28;20028;-68
2022/02/04 07:00:35;;;;;;;4.38;3.83;;;5.40;99.90;;;;;;5112103;28;20097;-69
2022/02/04 07:03:01;;;;;;;7.38;5.18;;;5.40;99.90;;;;;;5111420;28;20031;-68
2022/02/04 07:05:26;;;;;;;7.47;5.43;;;5.40;99.90;;;;;;5113338;28;20015;-68
2022/02/04 07:08:07;;;;;;;4.43;3.58;;;5.40;99.90;;;;;;5113198;28;20095;-68
2022/02/04 07:10:42;;;;;;;5.65;4.28;;;5.40;99.90;;;;;;5093743;28;20020;-69
2022/02/04 07:13:18;;;;;;;4.68;3.85;;;5.30;99.90;;;;;;5100909;28;20035;-68
2022/02/04 07:21:07;;;;;;;5.50;3.80;;;5.40;99.90;;;;;;5071376;28;20088;-71
2022/02/04 07:23:35;;;;;;;4.47;3.63;;;5.40;99.90;;;;;;5113722;28;20024;-68
2022/02/04 07:26:00;;;;;;;3.80;3.38;;;5.50;99.90;;;;;;5095047;28;20407;-71
2022/02/04 07:28:26;;;;;;;3.97;3.17;;;5.50;99.90;;;;;;5112339;28;20027;-68
2022/02/04 07:30:53;;;;;;;3.53;3.22;;;5.50;99.90;;;;;;5093188;28;20024;-68
2022/02/04 07:33:22;;;;;;;3.97;3.10;;;5.50;99.90;;;;;;5095792;28;20437;-69
2022/02/04 07:41:05;;;;;;;3.45;3.08;;;5.50;99.90;;;;;;5109404;28;20494;-69
2022/02/04 07:43:32;;;;;;;3.50;2.95;;;5.60;99.90;;;;;;5114297;28;20181;-68
2022/02/04 07:45:58;;;;;;;3.00;2.65;;;5.60;99.90;;;;;;5113960;28;20020;-67
2022/02/04 07:48:25;;;;;;;3.72;3.15;;;5.60;99.90;;;;;;5112427;28;20443;-70
2022/02/04 07:50:51;;;;;;;3.70;3.17;;;5.70;99.90;;;;;;5113727;28;20024;-68
2022/02/04 07:53:19;;;;;;;3.58;2.75;;;5.70;99.90;;;;;;5113799;28;20038;-68
2022/02/04 07:55:46;;;;;;;3.67;3.13;;;5.70;99.90;;;;;;5113853;28;20023;-69
2022/02/04 07:58:14;;;;;;;4.10;3.10;;;5.70;99.90;;;;;;5111845;28;20592;-70
2022/02/04 08:00:40;;;;;;;3.17;2.88;;;5.80;99.90;;;;;;5113329;28;20034;-68
2022/02/04 08:03:29;;;;;;;3.30;3.00;;;5.80;99.90;;;;;;5112923;28;20440;-69
2022/02/04 08:05:57;;;;;;;3.42;3.00;;;5.80;99.90;;;;;;5109957;28;20031;-70
2022/02/04 08:08:35;;;;;;;3.55;3.15;;;5.80;99.90;;;;;;5109488;28;20016;-69
2022/02/04 08:29:46;;;;;;;3.45;2.88;;;6.20;99.90;;;;;;5097668;28;20052;-68
2022/02/04 08:51:11;;;;;;;4.00;3.30;;;6.20;99.90;;;;;;5111169;28;20526;-70
2022/02/04 08:56:09;;;;;;;3.22;2.63;;;6.20;99.90;;;;;;5106571;28;20803;-68
2022/02/04 09:01:08;;;;;;;10.77;7.03;;;6.10;99.90;;;;;;5111533;28;20019;-70
2022/02/04 09:04:04;;;;;;;2.97;2.67;;;6.10;99.90;;;;;;5092800;28;20384;-70
2022/02/04 09:06:25;;;;;;;3.80;2.92;;;6.20;99.90;;;;;;5110999;28;20391;-69
2022/02/04 09:08:59;;;;;;;2.83;2.50;;;6.20;99.90;;;;;;5104663;28;20387;-69
2022/02/04 09:11:48;;;;;;;3.30;2.83;;;6.20;99.90;;;;;;5089298;28;20070;-67
2022/02/04 09:17:12;;;;;;;3.30;2.63;;;6.20;99.90;;;;;;5106521;28;20030;-68
2022/02/04 09:19:46;;;;;;;1.73;1.63;;;6.10;99.90;;;;;;5105890;28;20023;-67
2022/02/04 09:22:27;;;;;;;2.72;1.98;;;6.10;99.90;;;;;;5103434;28;20498;-67
2022/02/04 09:24:53;;;;;;;1.95;1.80;;;6.10;99.90;;;;;;5111201;28;20020;-69
2022/02/04 09:27:18;;;;;;;3.35;2.70;;;6.00;99.90;;;;;;5109310;28;20376;-72
2022/02/04 09:29:44;;;;;;;2.47;2.25;;;6.00;99.90;;;;;;5092711;28;20031;-68
2022/02/04 09:32:10;;;;;;;5.60;2.70;;;6.00;99.90;;;;;;5111064;28;20042;-68
2022/02/04 09:34:35;;;;;;;6.45;5.95;;;6.00;99.90;;;;;;5111650;28;20036;-69
2022/02/04 09:37:01;;;;;;;7.53;6.93;;;6.00;99.90;;;;;;5110981;28;20026;-71
2022/02/04 09:39:26;;;;;;;6.47;5.78;;;6.00;99.90;;;;;;5098127;28;20011;-67
2022/02/04 09:41:52;;;;;;;5.88;5.30;;;6.00;99.90;;;;;;5100419;28;20035;-70
2022/02/04 09:44:18;;;;;;;2.17;1.98;;;6.00;99.90;;;;;;5111434;28;20027;-68
2022/02/04 09:46:43;;;;;;;2.55;2.33;;;6.00;99.90;;;;;;5109539;28;20091;-69
2022/02/04 09:49:25;;;;;;;1.95;1.23;;;6.00;99.90;;;;;;5101402;28;20023;-68
2022/02/04 10:08:26;;;;;;;1.73;1.55;;;6.30;99.90;;;;;;5109891;28;20152;-70
2022/02/04 10:19:24;;;;;;;1.30;1.23;;;6.20;99.90;;;;;;5097404;28;20417;-69
2022/02/04 10:22:01;;;;;;;1.10;1.10;;;6.20;99.90;;;;;;5107454;28;20072;-68
2022/02/04 10:24:28;;;;;;;1.00;1.00;;;6.20;99.90;;;;;;5110850;28;20479;-69
2022/02/04 10:27:16;;;;;;;1.17;1.08;;;6.30;99.90;;;;;;5107277;28;20035;-69
2022/02/04 10:29:51;;;;;;;1.10;1.00;;;6.30;99.90;;;;;;5106014;28;20030;-68
2022/02/04 10:32:22;;;;;;;1.52;1.33;;;6.30;99.90;;;;;;5079558;28;20380;-68
2022/02/04 10:35:03;;;;;;;1.88;1.10;;;6.40;99.90;;;;;;5110773;28;20054;-67
2022/02/04 10:37:31;;;;;;;18.73;10.43;;;6.50;99.90;;;;;;5094771;28;20020;-68
2022/02/04 10:40:11;;;;;;;2.13;1.73;;;6.50;99.90;;;;;;5106815;28;20111;-68
2022/02/04 10:58:41;;;;;;;1.77;1.20;;;6.60;99.90;;;;;;5110629;28;20027;-68
2022/02/04 11:03:46;;;;;;;0.90;0.90;;;6.60;99.90;;;;;;5106771;28;20019;-70
2022/02/04 11:31:04;;;;;;;0.98;0.93;;;6.70;99.90;;;;;;5074857;28;20031;-88
2022/02/04 11:33:51;;;;;;;1.33;1.00;;;6.70;99.90;;;;;;5054800;28;20079;-88
2022/02/04 11:54:30;;;;;;;0.77;0.70;;;6.70;99.90;;;;;;5076056;28;20056;-89
2022/02/04 11:56:56;;;;;;;0.60;0.60;;;6.70;99.90;;;;;;5056429;28;20033;-90
2022/02/04 11:59:45;;;;;;;0.73;0.73;;;6.80;99.90;;;;;;5055576;28;20412;-88
2022/02/04 12:02:29;;;;;;;1.25;0.70;;;6.90;99.90;;;;;;5055754;28;20055;-89
2022/02/04 12:05:04;;;;;;;1.98;0.80;;;7.00;99.90;;;;;;5056091;28;20480;-89
2022/02/04 12:07:36;;;;;;;0.60;0.60;;;7.00;99.90;;;;;;5072850;28;20545;-89
2022/02/04 12:10:19;;;;;;;0.60;0.60;;;7.00;99.90;;;;;;5073370;28;20021;-88
2022/02/04 12:12:57;;;;;;;0.65;0.52;;;7.00;99.90;;;;;;5052885;28;20040;-88
2022/02/04 12:15:31;;;;;;;0.60;0.60;;;7.00;99.90;;;;;;5056950;28;20053;-88
2022/02/04 12:18:00;;;;;;;1.30;0.70;;;7.00;99.90;;;;;;5054782;28;20043;-89
2022/02/04 12:20:49;;;;;;;1.10;0.98;;;7.00;99.90;;;;;;5055592;28;20025;-88
2022/02/04 12:23:32;;;;;;;0.60;0.60;;;7.00;99.90;;;;;;5055614;28;20064;-89
2022/02/04 12:25:59;;;;;;;0.68;0.68;;;7.00;99.90;;;;;;5071836;28;20488;-88
2022/02/04 12:28:48;;;;;;;0.50;0.50;;;7.00;99.90;;;;;;5055475;28;20036;-90
2022/02/04 12:31:27;;;;;;;2.10;0.60;;;7.10;99.90;;;;;;5053965;28;20028;-88
2022/02/04 12:34:03;;;;;;;0.50;0.50;;;7.10;99.90;;;;;;5055827;28;20086;-89
2022/02/04 12:36:33;;;;;;;0.70;0.65;;;7.20;99.90;;;;;;5053857;28;20024;-90
2022/02/04 12:39:04;;;;;;;0.50;0.50;;;7.20;99.90;;;;;;5052449;28;20339;-89
2022/02/04 12:41:39;;;;;;;0.60;0.60;;;7.20;99.90;;;;;;5055680;28;20033;-88
2022/02/04 12:44:09;;;;;;;0.63;0.63;;;7.10;99.90;;;;;;5053789;28;20020;-89
2022/02/04 12:46:34;;;;;;;1.10;0.90;;;7.10;99.90;;;;;;5053729;28;20369;-90
2022/02/04 12:49:00;;;;;;;1.13;0.90;;;7.10;99.90;;;;;;5054451;28;20031;-88
2022/02/04 12:51:56;;;;;;;1.92;1.10;;;7.10;99.90;;;;;;5056614;28;20393;-88
2022/02/04 12:54:29;;;;;;;1.13;0.85;;;7.10;99.90;;;;;;5053720;28;20040;-88
2022/02/04 13:00:01;;;;;;;1.17;1.10;;;7.50;99.90;;;;;;5071387;28;20024;-87
2022/02/04 13:08:18;;;;;;;2.25;1.20;;;7.90;99.90;;;;;;5070591;28;20143;-89
2022/02/04 13:10:54;;;;;;;1.08;1.00;;;7.80;99.90;;;;;;5072065;28;20012;-89
2022/02/04 13:13:20;;;;;;;1.25;1.15;;;7.60;99.90;;;;;;5052757;28;20451;-89
2022/02/04 13:15:46;;;;;;;1.17;1.08;;;7.60;99.90;;;;;;5052631;28;20029;-90
2022/02/04 13:18:15;;;;;;;1.33;1.10;;;7.50;99.90;;;;;;5055802;28;20035;-88
2022/02/04 13:20:47;;;;;;;1.45;1.00;;;7.40;99.90;;;;;;5053636;28;20021;-86
2022/02/04 13:23:23;;;;;;;;;;;7.40;99.90;;;;;;5055743;28;20377;-87
2022/02/04 13:25:52;;;;;;;1.15;1.10;;;7.40;99.90;;;;;;5071951;28;19909;-87
2022/02/04 13:28:41;;;;;;;1.45;1.30;;;7.30;99.90;;;;;;5050812;28;20496;-89
2022/02/04 13:31:11;;;;;;;1.10;1.00;;;7.30;99.90;;;;;;5053953;28;20032;-87
2022/02/04 13:33:40;;;;;;;1.40;1.30;;;7.30;99.90;;;;;;5057168;28;20027;-87
2022/02/04 13:42:26;;;;;;;0.77;0.73;;;7.20;99.90;;;;;;5073659;28;20029;-87
2022/02/04 14:03:32;;;;;;;1.20;0.70;;;7.10;99.90;;;;;;5075115;28;20025;-87
2022/02/04 14:06:24;;;;;;;3.03;0.80;;;7.10;99.90;;;;;;5055229;28;20036;-88
2022/02/04 14:11:38;;;;;;;0.85;0.85;;;7.10;99.90;;;;;;5071996;28;20021;-89
2022/02/04 14:14:09;;;;;;;0.98;0.98;;;7.10;99.90;;;;;;5036560;28;20033;-89
2022/02/04 14:16:36;;;;;;;0.80;0.80;;;7.00;99.90;;;;;;5050312;28;20119;-88
2022/02/04 14:19:03;;;;;;;1.08;0.80;;;7.00;99.90;;;;;;5051801;28;20025;-85
2022/02/04 14:21:29;;;;;;;1.98;1.13;;;7.00;99.90;;;;;;5086270;28;20028;-89
2022/02/04 14:23:57;;;;;;;1.10;1.10;;;6.90;99.90;;;;;;5075075;28;20068;-86
2022/02/04 14:26:28;;;;;;;1.17;0.95;;;6.90;99.90;;;;;;5074291;28;20182;-87
2022/02/04 14:28:59;;;;;;;1.02;1.00;;;6.90;99.90;;;;;;5074504;28;20025;-88
2022/02/04 14:31:55;;;;;;;1.65;1.55;;;6.90;99.90;;;;;;5054192;28;20020;-87
2022/02/04 15:03:40;;;;;;;1.58;1.48;;;6.70;99.90;;;;;;5070771;28;20024;-88
2022/02/04 15:06:12;;;;;;;1.30;1.20;;;6.70;99.90;;;;;;5050899;28;20088;-89
2022/02/04 15:08:38;;;;;;;1.50;1.30;;;6.70;99.90;;;;;;5032218;28;20048;-87
2022/02/04 15:11:14;;;;;;;1.30;1.20;;;6.70;99.90;;;;;;5035054;28;20024;-87
2022/02/04 15:13:40;;;;;;;1.42;1.33;;;6.70;99.90;;;;;;5050581;28;20020;-87
2022/02/04 15:16:09;;;;;;;1.42;1.33;;;6.70;99.90;;;;;;5050928;28;20032;-87
2022/02/04 15:18:40;;;;;;;1.40;1.17;;;6.70;99.90;;;;;;5050659;28;20403;-88
2022/02/04 15:21:14;;;;;;;1.63;1.48;;;6.70;99.90;;;;;;5051230;28;20032;-88
2022/02/04 15:23:41;;;;;;;1.60;1.05;;;6.60;99.90;;;;;;5060727;28;20058;-86
2022/02/04 15:26:11;;;;;;;1.20;1.10;;;6.60;99.90;;;;;;5077010;28;20012;-87
2022/02/04 15:31:20;;;;;;;2.53;2.00;;;6.60;99.90;;;;;;5097661;28;20035;-86
2022/02/04 15:33:47;;;;;;;1.50;1.40;;;6.70;99.90;;;;;;5060479;28;20094;-88
2022/02/04 15:36:13;;;;;;;2.00;1.55;;;6.60;99.90;;;;;;5074611;28;20025;-89
2022/02/04 15:38:39;;;;;;;1.83;1.40;;;6.60;99.90;;;;;;5058302;28;20032;-87
2022/02/04 15:41:05;;;;;;;2.00;1.30;;;6.60;99.90;;;;;;5057715;28;20036;-88
2022/02/04 15:43:31;;;;;;;1.50;1.40;;;6.60;99.90;;;;;;5056040;28;20093;-89
2022/02/04 15:53:34;;;;;;;0.90;0.90;;;6.50;99.90;;;;;;5065240;28;20392;-87
2022/02/04 15:59:23;;;;;;;3.10;1.67;;;6.50;99.90;;;;;;5072669;28;20081;-87
2022/02/04 16:02:02;;;;;;;1.10;1.10;;;6.50;99.90;;;;;;5073560;28;20036;-86
2022/02/04 16:04:30;;;;;;;1.13;1.10;;;6.50;99.90;;;;;;5051963;28;20029;-86
2022/02/04 16:06:55;;;;;;;1.40;1.30;;;6.50;99.90;;;;;;5072756;28;20143;-87
2022/02/04 16:09:23;;;;;;;1.00;1.00;;;6.50;99.90;;;;;;5053793;28;20048;-87
2022/02/04 16:14:51;;;;;;;2.55;2.35;;;6.50;99.90;;;;;;5072046;28;20025;-88
2022/02/04 16:17:16;;;;;;;1.50;1.40;;;6.50;99.90;;;;;;5065227;28;20508;-87
2022/02/04 16:19:46;;;;;;;2.15;1.70;;;6.50;99.90;;;;;;5052060;28;20033;-88
2022/02/04 16:22:25;;;;;;;2.08;1.75;;;6.50;99.90;;;;;;5064300;28;20048;-88
2022/02/04 16:25:18;;;;;;;2.80;2.28;;;6.50;99.90;;;;;;5057638;28;20024;-87
2022/02/04 16:30:11;;;;;;;2.42;1.33;;;6.50;99.90;;;;;;5070567;28;20144;-87
2022/02/04 16:32:37;;;;;;;3.00;1.70;;;6.50;99.90;;;;;;5053387;28;20033;-86
2022/02/04 16:35:04;;;;;;;3.15;2.00;;;6.50;99.90;;;;;;5053549;28;20468;-87
2022/02/04 16:37:36;;;;;;;2.55;1.70;;;6.50;99.90;;;;;;5069124;28;20024;-87
2022/02/04 16:40:15;;;;;;;1.70;1.55;;;6.40;99.90;;;;;;5052860;28;20040;-88
2022/02/04 16:42:42;;;;;;;3.42;1.55;;;6.40;99.90;;;;;;5052807;28;20040;-87
2022/02/04 16:45:08;;;;;;;1.73;1.20;;;6.50;99.90;;;;;;5072973;28;20047;-87
2022/02/04 16:47:34;;;;;;;1.42;1.27;;;6.40;99.90;;;;;;5054610;28;20107;-87
2022/02/04 16:50:01;;;;;;;1.00;1.00;;;6.40;99.90;;;;;;5055187;28;20059;-87
2022/02/04 16:52:30;;;;;;;1.30;1.02;;;6.40;99.90;;;;;;5055102;28;20445;-87
2022/02/04 16:54:57;;;;;;;0.90;0.90;;;6.40;99.90;;;;;;5054819;28;20032;-87
2022/02/04 16:57:24;;;;;;;0.80;0.80;;;6.40;99.90;;;;;;5055079;28;20048;-87
2022/02/04 16:59:52;;;;;;;1.83;1.33;;;6.40;99.90;;;;;;5051235;28;20548;-87
2022/02/04 17:02:17;;;;;;;1.58;1.20;;;6.40;99.90;;;;;;5069037;28;20378;-87
2022/02/04 17:04:43;;;;;;;0.90;0.90;;;6.40;99.90;;;;;;5038484;28;20081;-89
2022/02/04 17:07:17;;;;;;;1.00;0.90;;;6.40;99.90;;;;;;5054849;28;20024;-87
2022/02/04 17:09:48;;;;;;;1.23;1.20;;;6.40;99.90;;;;;;5055399;28;20016;-89
2022/02/04 17:12:16;;;;;;;1.27;1.00;;;6.40;99.90;;;;;;5123272;22;20048;-68
2022/02/04 17:14:42;;;;;;;1.48;1.13;;;6.40;99.90;;;;;;5086664;28;20023;-67
2022/02/04 17:17:08;;;;;;;3.67;1.15;;;6.40;99.90;;;;;;5089797;28;20020;-68
2022/02/04 17:19:43;;;;;;;1.67;1.40;;;6.40;99.90;;;;;;5091315;28;20475;-68
2022/02/04 17:22:10;;;;;;;2.47;1.25;;;6.40;99.90;;;;;;5090273;28;20020;-68
2022/02/04 17:24:36;;;;;;;1.85;1.02;;;6.40;99.90;;;;;;5090514;28;20058;-68
2022/02/04 17:27:03;;;;;;;0.85;0.85;;;6.40;99.90;;;;;;5090324;28;20463;-69
2022/02/04 17:29:30;;;;;;;2.05;1.33;;;6.40;99.90;;;;;;5090467;28;20034;-69
2022/02/04 17:31:56;;;;;;;1.15;1.05;;;6.40;99.90;;;;;;5075789;28;20020;-69
2022/02/04 17:34:22;;;;;;;1.13;1.02;;;6.40;99.90;;;;;;5070806;28;20070;-69
2022/02/04 17:36:48;;;;;;;3.58;1.00;;;6.40;99.90;;;;;;5079006;28;20036;-69
2022/02/04 17:39:21;;;;;;;1.00;0.90;;;6.40;99.90;;;;;;5089971;28;20421;-70
2022/02/04 17:41:49;;;;;;;0.95;0.90;;;6.40;99.90;;;;;;5091178;28;20028;-70
2022/02/04 17:44:16;;;;;;;0.93;0.90;;;6.40;99.90;;;;;;5090377;28;20399;-69
2022/02/04 17:46:44;;;;;;;2.22;1.30;;;6.40;99.90;;;;;;5091564;28;20023;-69
2022/02/04 17:49:59;;;;;;;0.93;0.93;;;6.40;99.90;;;;;;5090349;28;20025;-69
2022/02/04 17:52:02;;;;;;;0.90;0.90;;;6.40;99.90;;;;;;5079580;28;20032;-68
2022/02/04 17:54:48;;;;;;;1.10;1.00;;;6.40;99.90;;;;;;5090439;28;20031;-70
2022/02/04 17:57:19;;;;;;;3.17;2.05;;;6.40;99.90;;;;;;5089999;28;20036;-70
2022/02/04 18:00:18;;;;;;;3.28;1.88;;;6.40;99.90;;;;;;5091215;28;20020;-69
2022/02/04 18:02:58;;;;;;;3.25;1.70;;;6.40;99.90;;;;;;5091479;28;20035;-70
2022/02/04 18:07:51;;;;;;;2.50;1.63;;;6.40;99.90;;;;;;5090424;28;20027;-69
2022/02/04 18:10:17;;;;;;;3.05;1.52;;;6.40;99.90;;;;;;5085222;28;20078;-70
2022/02/04 18:12:43;;;;;;;1.75;1.10;;;6.40;99.90;;;;;;5087924;28;20039;-70
2022/02/04 18:15:09;;;;;;;1.55;1.30;;;6.40;99.90;;;;;;5090925;28;20661;-69
2022/02/04 18:17:34;;;;;;;4.78;2.53;;;6.40;99.90;;;;;;5090334;28;20024;-68
2022/02/04 18:20:02;;;;;;;2.90;1.80;;;6.40;99.90;;;;;;5091744;28;20385;-70
2022/02/04 18:22:28;;;;;;;6.95;1.60;;;6.40;99.90;;;;;;5072525;28;20024;-69
2022/02/04 18:24:54;;;;;;;1.50;1.33;;;6.40;99.90;;;;;;5090346;28;20060;-69
2022/02/04 18:27:19;;;;;;;1.50;1.40;;;6.40;99.90;;;;;;5090119;28;20101;-70
2022/02/04 18:29:52;;;;;;;1.40;1.30;;;6.40;99.90;;;;;;5091242;28;20177;-68
2022/02/04 18:32:19;;;;;;;1.52;1.35;;;6.40;99.90;;;;;;5085443;28;20016;-68
2022/02/04 18:34:44;;;;;;;2.15;1.45;;;6.40;99.90;;;;;;5086257;28;20027;-68
2022/02/04 18:37:10;;;;;;;1.98;1.70;;;6.40;99.90;;;;;;5089147;28;20095;-68
2022/02/04 18:45:08;;;;;;;3.53;2.25;;;6.50;99.90;;;;;;5089502;28;20027;-68
2022/02/04 18:47:51;;;;;;;3.28;2.33;;;6.50;99.90;;;;;;5089276;28;20020;-70
2022/02/04 18:58:13;;;;;;;1.80;1.40;;;6.50;99.90;;;;;;5092944;28;20390;-69
2022/02/04 19:00:39;;;;;;;2.42;2.15;;;6.50;99.90;;;;;;5093058;28;20032;-69
2022/02/04 19:03:09;;;;;;;2.53;2.10;;;6.50;99.90;;;;;;5093173;28;20035;-68
2022/02/04 19:05:42;;;;;;;1.30;1.20;;;6.50;99.90;;;;;;5093665;28;20016;-68
2022/02/04 19:08:20;;;;;;;2.00;1.40;;;6.50;99.90;;;;;;5092918;28;20020;-68
2022/02/04 19:10:47;;;;;;;1.20;1.00;;;6.60;99.90;;;;;;5092743;28;20020;-70
2022/02/04 19:13:21;;;;;;;1.20;1.10;;;6.60;99.90;;;;;;5093035;28;20028;-68
2022/02/04 19:16:01;;;;;;;1.27;1.00;;;6.60;99.90;;;;;;5093186;28;20012;-68
2022/02/04 19:21:14;;;;;;;1.08;0.98;;;6.60;99.90;;;;;;5092906;28;20051;-67
2022/02/04 19:23:50;;;;;;;1.40;1.20;;;6.60;99.90;;;;;;5093262;28;20039;-68
2022/02/04 19:26:21;;;;;;;1.13;1.00;;;6.60;99.90;;;;;;5092887;28;20024;-68
2022/02/04 19:28:47;;;;;;;1.20;1.10;;;6.60;99.90;;;;;;5092751;28;20099;-68
2022/02/04 19:31:13;;;;;;;0.93;0.80;;;6.60;99.90;;;;;;5074504;28;20028;-67
2022/02/04 19:33:38;;;;;;;1.70;1.25;;;6.70;99.90;;;;;;5074722;28;20028;-70
2022/02/04 19:36:04;;;;;;;1.10;1.00;;;6.70;99.90;;;;;;5092602;28;20492;-69
2022/02/04 19:38:30;;;;;;;1.67;1.25;;;6.70;99.90;;;;;;5092338;28;20062;-68
2022/02/04 19:40:57;;;;;;;1.88;1.23;;;6.70;99.90;;;;;;5092703;28;20107;-68